createdAt,value
2023-01-26T00:00:34.140Z,10.02
2023-01-26T00:01:37.213Z,10.80
2023-01-26T00:02:40.395Z,10.07
2023-01-26T00:03:43.977Z,10.63
2023-01-26T00:04:46.977Z,10.57
2023-01-26T00:05:49.907Z,12.65
2023-01-26T00:06:53.375Z,12.68
2023-01-26T00:07:56.301Z,10.73
2023-01-26T00:09:00.461Z,13.30
2023-01-26T00:10:04.025Z,10.05
2023-01-26T00:11:11.141Z,11.12
2023-01-26T00:12:14.136Z,13.13
2023-01-26T00:13:23.192Z,11.88
2023-01-26T00:14:26.371Z,10.00
2023-01-26T00:15:29.609Z,11.00
2023-01-26T00:16:32.608Z,13.25
2023-01-26T00:17:38.651Z,13.48
2023-01-26T00:18:44.073Z,12.52
2023-01-26T00:19:47.464Z,11.43
2023-01-26T00:20:59.625Z,10.70
2023-01-26T00:22:02.555Z,11.30
2023-01-26T00:23:05.648Z,12.43
2023-01-26T00:24:08.651Z,12.00
2023-01-26T00:25:11.921Z,14.20
2023-01-26T00:26:21.074Z,10.45
2023-01-26T00:27:24.118Z,10.63
2023-01-26T00:28:29.760Z,12.60
2023-01-26T00:29:32.714Z,10.77
2023-01-26T00:30:35.877Z,18.58
2023-01-26T00:31:38.959Z,15.00
2023-01-26T00:32:42.071Z,14.27
2023-01-26T00:33:45.456Z,13.95
2023-01-26T00:34:50.377Z,11.90
2023-01-26T00:35:56.257Z,12.52
2023-01-26T00:36:59.317Z,16.83
2023-01-26T00:38:02.404Z,15.10
2023-01-26T00:39:05.511Z,13.60
2023-01-26T00:40:10.155Z,16.08
2023-01-26T00:41:34.537Z,14.07
2023-01-26T00:42:37.544Z,14.55
2023-01-26T00:43:40.541Z,17.73
2023-01-26T00:44:44.361Z,13.68
2023-01-26T00:45:47.537Z,14.68
2023-01-26T00:46:50.538Z,17.20
2023-01-26T00:47:53.536Z,17.40
2023-01-26T00:49:00.387Z,21.87
2023-01-26T00:50:03.706Z,16.67
2023-01-26T00:51:07.330Z,18.37
2023-01-26T00:52:11.406Z,15.38
2023-01-26T00:53:14.416Z,14.98
2023-01-26T00:54:21.314Z,13.43
2023-01-26T00:55:25.108Z,21.48
2023-01-26T00:56:28.382Z,17.95
2023-01-26T00:57:31.505Z,19.20
2023-01-26T00:58:35.738Z,18.75
2023-01-26T00:59:39.062Z,22.25
2023-01-26T01:00:42.090Z,21.92
2023-01-26T01:01:45.328Z,24.70
2023-01-26T01:02:48.656Z,23.62
2023-01-26T01:03:52.366Z,21.85
2023-01-26T01:04:55.469Z,25.00
2023-01-26T01:05:58.409Z,24.02
2023-01-26T01:07:01.523Z,24.45
2023-01-26T01:08:04.613Z,23.98
2023-01-26T01:09:08.259Z,25.50
2023-01-26T01:10:11.610Z,22.15
2023-01-26T01:11:15.871Z,24.70
2023-01-26T01:12:18.709Z,24.25
2023-01-26T01:13:21.652Z,21.75
2023-01-26T01:14:24.904Z,22.60
2023-01-26T01:15:27.857Z,20.65
2023-01-26T01:16:38.060Z,21.95
2023-01-26T01:17:41.641Z,22.23
2023-01-26T01:18:45.026Z,20.12
2023-01-26T01:19:47.957Z,23.15
2023-01-26T01:20:50.777Z,21.50
2023-01-26T01:21:53.804Z,18.58
2023-01-26T01:22:56.752Z,20.85
2023-01-26T01:24:00.733Z,23.85
2023-01-26T01:25:04.679Z,21.30
2023-01-26T01:26:09.157Z,21.73
2023-01-26T01:27:12.005Z,20.08
2023-01-26T01:28:15.652Z,23.38
2023-01-26T01:29:19.273Z,19.52
2023-01-26T01:30:22.421Z,23.80
2023-01-26T01:31:26.410Z,19.70
2023-01-26T01:32:29.442Z,21.25
2023-01-26T01:33:32.444Z,22.90
2023-01-26T01:34:35.406Z,19.02
2023-01-26T01:35:38.361Z,26.70
2023-01-26T01:36:41.216Z,22.62
2023-01-26T01:37:44.133Z,21.98
2023-01-26T01:38:48.524Z,25.45
2023-01-26T01:39:51.537Z,20.80
2023-01-26T01:40:55.919Z,21.80
2023-01-26T01:41:58.875Z,23.15
2023-01-26T01:43:01.870Z,19.80
2023-01-26T01:44:23.342Z,22.33
2023-01-26T01:45:26.410Z,24.65
2023-01-26T01:46:32.412Z,25.33
2023-01-26T01:47:35.450Z,21.98
2023-01-26T01:48:56.377Z,25.00
2023-01-26T01:49:59.740Z,22.58
2023-01-26T01:51:17.540Z,23.15
2023-01-26T01:52:22.151Z,23.55
2023-01-26T01:53:30.731Z,24.50
2023-01-26T01:54:40.187Z,24.27
2023-01-26T01:55:43.420Z,23.45
2023-01-26T01:56:51.855Z,22.67
2023-01-26T01:58:00.464Z,24.87
2023-01-26T01:59:08.847Z,23.83
2023-01-26T02:00:18.770Z,25.88
2023-01-26T02:01:23.982Z,22.75
2023-01-26T02:02:27.315Z,24.52
2023-01-26T02:03:31.947Z,27.95
2023-01-26T02:04:34.871Z,29.65
2023-01-26T02:06:00.937Z,28.85
2023-01-26T02:07:05.431Z,28.05
2023-01-26T02:08:10.099Z,33.17
2023-01-26T02:09:33.712Z,35.22
2023-01-26T02:10:37.278Z,31.30
2023-01-26T02:11:48.232Z,28.85
2023-01-26T02:13:01.233Z,29.12
2023-01-26T02:14:09.002Z,30.30
2023-01-26T02:15:12.322Z,31.90
2023-01-26T02:16:17.406Z,29.15
2023-01-26T02:17:20.766Z,27.30
2023-01-26T02:18:24.530Z,29.02
2023-01-26T02:19:50.117Z,31.05
2023-01-26T02:21:09.242Z,26.52
2023-01-26T02:22:23.585Z,29.20
2023-01-26T02:23:48.188Z,29.05
2023-01-26T02:24:53.065Z,29.12
2023-01-26T02:26:03.300Z,27.17
2023-01-26T02:27:07.011Z,27.10
2023-01-26T02:28:12.263Z,26.00
2023-01-26T02:29:16.023Z,30.27
2023-01-26T02:30:19.515Z,31.10
2023-01-26T02:31:24.490Z,32.63
2023-01-26T02:32:28.563Z,28.65
2023-01-26T02:33:33.653Z,29.98
2023-01-26T02:34:36.593Z,26.23
2023-01-26T02:35:39.625Z,32.65
2023-01-26T02:36:42.869Z,27.95
2023-01-26T02:37:45.975Z,30.45
2023-01-26T02:39:28.772Z,35.78
2023-01-26T02:40:55.335Z,35.83
2023-01-26T02:42:17.228Z,35.50
2023-01-26T02:43:20.336Z,28.67
2023-01-26T02:44:23.537Z,28.80
2023-01-26T02:45:28.026Z,31.65
2023-01-26T02:46:31.560Z,32.95
2023-01-26T02:47:34.703Z,33.17
2023-01-26T02:48:58.622Z,34.53
2023-01-26T02:50:01.907Z,30.02
2023-01-26T02:51:09.942Z,31.05
2023-01-26T02:52:14.155Z,29.37
2023-01-26T02:53:17.040Z,31.42
2023-01-26T02:54:55.301Z,29.48
2023-01-26T02:55:58.451Z,29.45
2023-01-26T02:57:01.899Z,24.87
2023-01-26T02:58:05.995Z,27.45
2023-01-26T02:59:10.513Z,25.67
2023-01-26T03:00:28.317Z,27.83
2023-01-26T03:01:32.606Z,25.95
2023-01-26T03:02:36.344Z,24.20
2023-01-26T03:03:42.275Z,26.08
2023-01-26T03:04:45.341Z,24.42
2023-01-26T03:05:48.616Z,23.80
2023-01-26T03:06:51.619Z,25.25
2023-01-26T03:07:55.703Z,24.12
2023-01-26T03:08:59.628Z,23.55
2023-01-26T03:10:03.152Z,22.52
2023-01-26T03:11:09.685Z,21.75
2023-01-26T03:12:13.462Z,22.00
2023-01-26T03:13:16.485Z,23.38
2023-01-26T03:14:19.801Z,23.42
2023-01-26T03:15:41.692Z,19.15
2023-01-26T03:17:47.556Z,23.85
2023-01-26T03:19:04.121Z,22.83
2023-01-26T03:20:26.874Z,19.85
2023-01-26T03:21:48.457Z,21.73
2023-01-26T03:23:10.060Z,25.12
2023-01-26T03:24:33.878Z,22.35
2023-01-26T03:25:55.696Z,21.23
2023-01-26T03:27:17.494Z,20.40
2023-01-26T03:28:24.607Z,18.90
2023-01-26T03:29:28.963Z,22.23
2023-01-26T03:30:31.881Z,24.23
2023-01-26T03:31:35.025Z,20.77
2023-01-26T03:32:37.996Z,18.95
2023-01-26T03:33:41.051Z,22.58
2023-01-26T03:34:44.076Z,20.17
2023-01-26T03:35:47.515Z,19.65
2023-01-26T03:36:54.168Z,20.85
2023-01-26T03:37:57.222Z,22.45
2023-01-26T03:39:00.269Z,22.67
2023-01-26T03:40:25.275Z,23.40
2023-01-26T03:41:47.050Z,18.30
2023-01-26T03:43:08.862Z,21.77
2023-01-26T03:44:30.139Z,21.90
2023-01-26T03:45:51.546Z,16.92
2023-01-26T03:47:13.489Z,21.00
2023-01-26T03:48:35.430Z,18.05
2023-01-26T03:49:56.978Z,16.87
2023-01-26T03:51:18.759Z,21.70
2023-01-26T03:52:40.058Z,20.23
2023-01-26T03:54:02.981Z,22.65
2023-01-26T03:55:24.975Z,17.15
2023-01-26T03:56:32.931Z,20.90
2023-01-26T03:57:35.917Z,18.60
2023-01-26T03:58:39.981Z,16.08
2023-01-26T03:59:42.857Z,17.67
2023-01-26T04:00:45.682Z,16.73
2023-01-26T04:02:07.634Z,18.05
2023-01-26T04:03:28.891Z,19.55
2023-01-26T04:04:50.584Z,18.90
2023-01-26T04:06:17.560Z,17.17
2023-01-26T04:07:38.903Z,18.35
2023-01-26T04:08:42.505Z,21.35
2023-01-26T04:09:45.485Z,20.80
2023-01-26T04:10:51.350Z,17.35
2023-01-26T04:11:54.456Z,18.05
2023-01-26T04:13:16.294Z,18.98
2023-01-26T04:14:49.174Z,22.52
2023-01-26T04:16:11.433Z,20.33
2023-01-26T04:17:32.995Z,19.87
2023-01-26T04:18:58.338Z,19.98
2023-01-26T04:20:20.035Z,16.67
2023-01-26T04:21:34.623Z,22.33
2023-01-26T04:22:40.546Z,19.77
2023-01-26T04:23:47.153Z,21.85
2023-01-26T04:24:49.985Z,20.77
2023-01-26T04:25:52.828Z,21.60
2023-01-26T04:26:57.261Z,21.62
2023-01-26T04:28:00.222Z,22.60
2023-01-26T04:29:05.099Z,22.52
2023-01-26T04:30:10.784Z,23.38
2023-01-26T04:31:16.704Z,21.42
2023-01-26T04:32:19.763Z,22.42
2023-01-26T04:33:22.578Z,22.23
2023-01-26T04:34:25.420Z,22.37
2023-01-26T04:35:28.347Z,20.25
2023-01-26T04:36:31.795Z,21.58
2023-01-26T04:37:35.063Z,25.37
2023-01-26T04:38:38.594Z,19.10
2023-01-26T04:39:41.781Z,24.98
2023-01-26T04:40:45.042Z,23.02
2023-01-26T04:41:48.001Z,23.83
2023-01-26T04:42:50.936Z,25.83
2023-01-26T04:43:53.774Z,24.65
2023-01-26T04:44:56.770Z,23.00
2023-01-26T04:46:05.378Z,25.65
2023-01-26T04:47:12.332Z,24.75
2023-01-26T04:48:15.490Z,27.05
2023-01-26T04:49:20.128Z,22.85
2023-01-26T04:50:23.124Z,22.33
2023-01-26T04:51:26.182Z,20.67
2023-01-26T04:52:29.605Z,26.27
2023-01-26T04:53:33.467Z,24.35
2023-01-26T04:54:36.570Z,27.85
2023-01-26T04:55:39.475Z,27.33
2023-01-26T04:56:42.713Z,25.67
2023-01-26T04:57:45.805Z,25.90
2023-01-26T04:58:52.872Z,27.95
2023-01-26T04:59:55.943Z,32.55
2023-01-26T05:00:59.250Z,24.37
2023-01-26T05:02:02.178Z,27.40
2023-01-26T05:03:05.218Z,25.55
2023-01-26T05:04:08.400Z,27.65
2023-01-26T05:05:11.697Z,26.00
2023-01-26T05:06:14.727Z,26.70
2023-01-26T05:07:17.715Z,28.52
2023-01-26T05:08:22.261Z,27.17
2023-01-26T05:09:29.333Z,29.70
2023-01-26T05:10:32.982Z,28.27
2023-01-26T05:11:36.135Z,23.38
2023-01-26T05:12:42.915Z,23.73
2023-01-26T05:13:47.462Z,22.08
2023-01-26T05:14:54.097Z,23.75
2023-01-26T05:15:57.007Z,22.08
2023-01-26T05:17:01.710Z,25.80
2023-01-26T05:18:05.661Z,22.00
2023-01-26T05:19:12.618Z,23.52
2023-01-26T05:20:16.139Z,26.85
2023-01-26T05:21:20.127Z,22.80
2023-01-26T05:22:23.125Z,24.00
2023-01-26T05:23:27.332Z,20.45
2023-01-26T05:24:30.238Z,26.67
2023-01-26T05:25:33.272Z,25.17
2023-01-26T05:26:36.108Z,22.73
2023-01-26T05:27:39.169Z,20.70
2023-01-26T05:28:42.008Z,23.73
2023-01-26T05:29:44.970Z,24.15
2023-01-26T05:30:48.436Z,24.37
2023-01-26T05:31:51.599Z,27.17
2023-01-26T05:32:54.552Z,25.55
2023-01-26T05:33:57.552Z,21.87
2023-01-26T05:35:00.551Z,21.52
2023-01-26T05:36:06.356Z,25.10
2023-01-26T05:37:09.459Z,23.15
2023-01-26T05:38:12.610Z,24.15
2023-01-26T05:39:15.691Z,21.77
2023-01-26T05:40:18.682Z,22.55
2023-01-26T05:41:21.792Z,21.92
2023-01-26T05:42:25.797Z,28.62
2023-01-26T05:43:28.628Z,24.30
2023-01-26T05:44:31.669Z,23.60
2023-01-26T05:45:35.382Z,25.20
2023-01-26T05:46:38.293Z,23.45
2023-01-26T05:47:44.786Z,30.50
2023-01-26T05:48:48.770Z,25.90
2023-01-26T05:49:52.043Z,25.85
2023-01-26T05:50:57.071Z,28.02
2023-01-26T05:52:00.233Z,27.42
2023-01-26T05:53:03.433Z,23.45
2023-01-26T05:54:06.604Z,24.60
2023-01-26T05:55:09.673Z,25.98
2023-01-26T05:56:12.535Z,26.05
2023-01-26T05:57:17.180Z,25.52
2023-01-26T05:58:20.412Z,26.67
2023-01-26T05:59:23.329Z,27.80
2023-01-26T06:00:26.645Z,24.12
2023-01-26T06:01:29.954Z,25.20
2023-01-26T06:02:32.902Z,23.55
2023-01-26T06:03:37.268Z,25.10
2023-01-26T06:04:40.439Z,23.02
2023-01-26T06:05:43.273Z,23.80
2023-01-26T06:06:46.383Z,23.38
2023-01-26T06:07:50.261Z,23.65
2023-01-26T06:08:55.220Z,22.62
2023-01-26T06:09:58.350Z,24.10
2023-01-26T06:11:01.653Z,26.30
2023-01-26T06:12:04.922Z,24.55
2023-01-26T06:13:07.768Z,25.95
2023-01-26T06:14:10.709Z,27.45
2023-01-26T06:15:13.726Z,23.20
2023-01-26T06:16:17.543Z,26.12
2023-01-26T06:17:20.586Z,25.08
2023-01-26T06:18:24.163Z,22.27
2023-01-26T06:19:27.271Z,26.90
2023-01-26T06:20:30.156Z,25.37
2023-01-26T06:21:33.761Z,25.77
2023-01-26T06:22:36.894Z,24.12
2023-01-26T06:23:39.937Z,25.80
2023-01-26T06:24:42.786Z,23.17
2023-01-26T06:25:45.681Z,22.45
2023-01-26T06:26:49.609Z,26.87
2023-01-26T06:27:56.128Z,27.40
2023-01-26T06:29:04.866Z,21.35
2023-01-26T06:30:09.442Z,21.45
2023-01-26T06:31:15.956Z,24.80
2023-01-26T06:32:18.941Z,24.33
2023-01-26T06:33:22.672Z,27.65
2023-01-26T06:34:26.549Z,22.60
2023-01-26T06:35:29.445Z,20.75
2023-01-26T06:36:32.630Z,21.30
2023-01-26T06:37:39.322Z,21.00
2023-01-26T06:38:51.082Z,22.62
2023-01-26T06:39:53.991Z,23.90
2023-01-26T06:41:07.100Z,27.37
2023-01-26T06:42:10.353Z,22.55
2023-01-26T06:43:17.149Z,25.50
2023-01-26T06:44:20.285Z,22.92
2023-01-26T06:45:23.368Z,20.23
2023-01-26T06:46:26.934Z,24.83
2023-01-26T06:47:29.941Z,19.17
2023-01-26T06:48:39.456Z,24.30
2023-01-26T06:49:42.471Z,22.48
2023-01-26T06:50:47.235Z,22.08
2023-01-26T06:51:59.813Z,23.60
2023-01-26T06:53:18.615Z,20.73
2023-01-26T06:54:21.695Z,20.95
2023-01-26T06:55:35.321Z,23.42
2023-01-26T06:57:46.680Z,21.48
2023-01-26T06:58:51.182Z,23.30
2023-01-26T06:59:54.378Z,21.92
2023-01-26T07:00:57.674Z,22.67
2023-01-26T07:02:00.546Z,18.75
2023-01-26T07:03:03.648Z,19.17
2023-01-26T07:04:06.631Z,21.52
2023-01-26T07:05:11.121Z,21.25
2023-01-26T07:06:15.893Z,19.05
2023-01-26T07:07:18.683Z,19.52
2023-01-26T07:08:22.216Z,19.55
2023-01-26T07:09:25.431Z,18.45
2023-01-26T07:10:28.794Z,20.42
2023-01-26T07:11:32.978Z,18.48
2023-01-26T07:12:43.305Z,18.00
2023-01-26T07:13:47.009Z,18.87
2023-01-26T07:14:51.718Z,19.90
2023-01-26T07:16:04.915Z,17.10
2023-01-26T07:17:08.145Z,16.77
2023-01-26T07:18:11.443Z,20.10
2023-01-26T07:19:14.609Z,18.55
2023-01-26T07:20:18.016Z,22.67
2023-01-26T07:21:23.313Z,17.58
2023-01-26T07:22:26.823Z,17.67
2023-01-26T07:23:30.134Z,18.45
2023-01-26T07:24:33.400Z,18.98
2023-01-26T07:25:36.436Z,17.27
2023-01-26T07:26:39.549Z,19.62
2023-01-26T07:27:42.419Z,20.15
2023-01-26T07:28:45.740Z,20.00
2023-01-26T07:29:48.691Z,19.10
2023-01-26T07:30:52.768Z,18.98
2023-01-26T07:31:55.630Z,19.12
2023-01-26T07:33:00.931Z,20.48
2023-01-26T07:35:11.709Z,18.48
2023-01-26T07:36:14.646Z,19.20
2023-01-26T07:37:17.570Z,19.92
2023-01-26T07:38:20.525Z,21.08
2023-01-26T07:39:23.762Z,20.10
2023-01-26T07:40:26.576Z,20.20
2023-01-26T07:41:29.828Z,21.98
2023-01-26T07:42:35.519Z,21.02
2023-01-26T07:43:39.418Z,18.00
2023-01-26T07:44:46.420Z,17.75
2023-01-26T07:45:54.090Z,21.77
2023-01-26T07:46:58.279Z,24.60
2023-01-26T07:48:01.434Z,18.42
2023-01-26T07:49:05.439Z,21.12
2023-01-26T07:50:09.231Z,23.23
2023-01-26T07:51:13.500Z,18.98
2023-01-26T07:52:16.500Z,16.90
2023-01-26T07:53:19.961Z,19.35
2023-01-26T07:54:23.327Z,16.20
2023-01-26T07:55:26.614Z,19.15
2023-01-26T07:56:29.651Z,17.00
2023-01-26T07:57:34.439Z,17.15
2023-01-26T07:58:38.725Z,18.80
2023-01-26T07:59:41.772Z,15.90
2023-01-26T08:00:47.624Z,17.37
2023-01-26T08:01:51.872Z,14.70
2023-01-26T08:02:54.787Z,18.65
2023-01-26T08:03:58.222Z,14.57
2023-01-26T08:05:03.091Z,19.20
2023-01-26T08:06:07.139Z,18.33
2023-01-26T08:07:10.213Z,17.12
2023-01-26T08:08:14.251Z,14.43
2023-01-26T08:09:17.288Z,17.62
2023-01-26T08:10:20.527Z,17.77
2023-01-26T08:11:24.572Z,18.70
2023-01-26T08:12:27.454Z,18.62
2023-01-26T08:13:35.689Z,16.48
2023-01-26T08:14:46.892Z,17.27
2023-01-26T08:15:51.538Z,21.42
2023-01-26T08:16:54.565Z,15.20
2023-01-26T08:17:57.654Z,17.90
2023-01-26T08:19:04.358Z,17.45
2023-01-26T08:20:08.172Z,15.23
2023-01-26T08:21:17.144Z,14.52
2023-01-26T08:22:20.090Z,16.00
2023-01-26T08:23:23.469Z,19.08
2023-01-26T08:24:28.100Z,16.48
2023-01-26T08:25:33.431Z,12.73
2023-01-26T08:26:36.720Z,17.05
2023-01-26T08:27:39.833Z,14.60
2023-01-26T08:28:44.183Z,16.67
2023-01-26T08:29:47.090Z,14.93
2023-01-26T08:30:50.154Z,17.48
2023-01-26T08:31:53.912Z,14.02
2023-01-26T08:32:56.908Z,12.35
2023-01-26T08:34:00.080Z,15.73
2023-01-26T08:35:03.412Z,14.82
2023-01-26T08:36:11.237Z,16.23
2023-01-26T08:37:14.272Z,16.87
2023-01-26T08:38:17.285Z,17.37
2023-01-26T08:39:20.624Z,16.00
2023-01-26T08:40:25.219Z,17.67
2023-01-26T08:41:28.130Z,14.68
2023-01-26T08:42:31.292Z,17.67
2023-01-26T08:43:35.030Z,14.73
2023-01-26T08:44:37.821Z,15.27
2023-01-26T08:45:40.846Z,18.70
2023-01-26T08:46:44.460Z,16.33
2023-01-26T08:47:51.634Z,16.83
2023-01-26T08:48:54.758Z,16.62
2023-01-26T08:49:58.220Z,12.30
2023-01-26T08:51:04.087Z,11.88
2023-01-26T08:52:06.995Z,15.05
2023-01-26T08:53:10.850Z,14.95
2023-01-26T08:54:13.735Z,16.20
2023-01-26T08:55:16.594Z,17.55
2023-01-26T08:56:19.514Z,13.90
2023-01-26T08:57:22.555Z,13.57
2023-01-26T08:58:25.813Z,13.35
2023-01-26T08:59:28.850Z,17.15
2023-01-26T09:00:32.134Z,15.90
2023-01-26T09:01:35.099Z,16.25
2023-01-26T09:02:38.040Z,17.70
2023-01-26T09:03:41.819Z,17.73
2023-01-26T09:04:44.786Z,18.10
2023-01-26T09:05:47.941Z,16.15
2023-01-26T09:06:51.033Z,14.90
2023-01-26T09:07:54.020Z,16.20
2023-01-26T09:08:57.701Z,12.95
2023-01-26T09:10:00.953Z,13.43
2023-01-26T09:11:07.093Z,17.52
2023-01-26T09:12:10.153Z,15.38
2023-01-26T09:13:13.589Z,15.70
2023-01-26T09:14:16.988Z,14.40
2023-01-26T09:15:20.248Z,17.10
2023-01-26T09:16:24.368Z,15.75
2023-01-26T09:17:27.822Z,18.55
2023-01-26T09:18:31.095Z,16.92
2023-01-26T09:19:34.104Z,16.10
2023-01-26T09:20:39.391Z,15.77
2023-01-26T09:21:42.252Z,18.08
2023-01-26T09:22:45.531Z,15.05
2023-01-26T09:23:48.661Z,13.45
2023-01-26T09:24:51.806Z,18.23
2023-01-26T09:25:55.151Z,16.25
2023-01-26T09:26:58.334Z,15.55
2023-01-26T09:28:05.402Z,19.15
2023-01-26T09:29:08.743Z,15.85
2023-01-26T09:30:12.745Z,17.77
2023-01-26T09:31:16.744Z,16.98
2023-01-26T09:32:20.431Z,13.98
2023-01-26T09:33:23.463Z,18.25
2023-01-26T09:34:26.535Z,19.15
2023-01-26T09:35:30.741Z,17.83
2023-01-26T09:36:33.940Z,15.55
2023-01-26T09:37:36.940Z,15.75
2023-01-26T09:38:40.551Z,17.73
2023-01-26T09:39:43.844Z,17.80
2023-01-26T09:41:15.080Z,18.52
2023-01-26T09:42:36.565Z,16.95
2023-01-26T09:43:48.217Z,21.48
2023-01-26T09:45:14.484Z,16.65
2023-01-26T09:46:54.209Z,21.77
2023-01-26T09:48:12.631Z,17.48
2023-01-26T09:49:32.458Z,17.02
2023-01-26T09:50:41.155Z,22.90
2023-01-26T09:51:51.331Z,17.92
2023-01-26T09:52:56.665Z,20.45
2023-01-26T09:54:06.024Z,19.98
2023-01-26T09:55:21.925Z,20.12
2023-01-26T09:56:30.301Z,21.75
2023-01-26T09:57:42.143Z,22.52
2023-01-26T09:58:53.809Z,21.25
2023-01-26T10:00:23.254Z,23.87
2023-01-26T10:01:45.628Z,25.00
2023-01-26T10:03:03.084Z,21.33
2023-01-26T10:04:30.182Z,21.08
2023-01-26T10:05:43.508Z,24.40
2023-01-26T10:06:47.579Z,19.23
2023-01-26T10:07:50.567Z,20.15
2023-01-26T10:09:12.827Z,19.20
2023-01-26T10:10:24.164Z,19.92
2023-01-26T10:11:26.944Z,20.40
2023-01-26T10:12:35.638Z,18.98
2023-01-26T10:13:38.873Z,18.05
2023-01-26T10:14:50.924Z,17.30
2023-01-26T10:16:05.817Z,19.40
2023-01-26T10:17:31.606Z,21.40
2023-01-26T10:18:45.335Z,20.60
2023-01-26T10:20:14.227Z,21.15
2023-01-26T10:21:23.225Z,20.88
2023-01-26T10:22:39.140Z,22.02
2023-01-26T10:23:48.536Z,22.33
2023-01-26T10:24:53.328Z,24.87
2023-01-26T10:26:17.074Z,20.73
2023-01-26T10:27:20.120Z,23.42
2023-01-26T10:28:35.386Z,20.12
2023-01-26T10:29:38.300Z,22.25
2023-01-26T10:30:43.719Z,19.87
2023-01-26T10:31:47.064Z,22.05
2023-01-26T10:32:53.035Z,21.60
2023-01-26T10:33:57.795Z,24.52
2023-01-26T10:35:00.633Z,25.23
2023-01-26T10:36:06.922Z,17.42
2023-01-26T10:37:25.961Z,22.65
2023-01-26T10:38:38.362Z,20.77
2023-01-26T10:40:01.620Z,21.45
2023-01-26T10:41:14.766Z,19.27
2023-01-26T10:42:19.906Z,21.08
2023-01-26T10:43:24.918Z,22.50
2023-01-26T10:44:34.476Z,19.42
2023-01-26T10:45:47.032Z,20.60
2023-01-26T10:47:07.052Z,22.52
2023-01-26T10:48:24.595Z,19.83
2023-01-26T10:49:28.521Z,18.60
2023-01-26T10:50:33.330Z,23.50
2023-01-26T10:51:39.248Z,19.40
2023-01-26T10:53:01.879Z,18.12
2023-01-26T10:54:27.417Z,21.35
2023-01-26T10:55:33.321Z,19.67
2023-01-26T10:56:37.837Z,17.27
2023-01-26T10:57:43.238Z,20.95
2023-01-26T10:59:03.516Z,21.70
2023-01-26T11:00:20.754Z,21.23
2023-01-26T11:01:27.862Z,21.60
2023-01-26T11:02:31.563Z,21.30
2023-01-26T11:03:34.477Z,19.33
2023-01-26T11:04:37.773Z,22.77
2023-01-26T11:05:40.911Z,18.10
2023-01-26T11:06:43.844Z,21.20
2023-01-26T11:07:51.494Z,20.35
2023-01-26T11:08:54.904Z,20.10
2023-01-26T11:10:15.770Z,19.90
2023-01-26T11:11:27.690Z,17.40
2023-01-26T11:12:30.671Z,18.33
2023-01-26T11:13:34.019Z,20.88
2023-01-26T11:14:36.963Z,21.90
2023-01-26T11:15:42.399Z,22.08
2023-01-26T11:17:00.843Z,21.35
2023-01-26T11:18:16.312Z,17.10
2023-01-26T11:19:45.101Z,19.12
2023-01-26T11:20:54.167Z,19.12
2023-01-26T11:22:03.820Z,20.85
2023-01-26T11:23:25.475Z,18.80
2023-01-26T11:24:34.129Z,16.77
2023-01-26T11:26:18.954Z,22.10
2023-01-26T11:27:35.669Z,20.58
2023-01-26T11:29:01.190Z,21.90
2023-01-26T11:30:30.726Z,20.05
2023-01-26T11:31:52.183Z,19.85
2023-01-26T11:33:17.657Z,22.20
2023-01-26T11:34:37.973Z,22.33
2023-01-26T11:35:51.559Z,20.27
2023-01-26T11:37:29.905Z,19.83
2023-01-26T11:38:39.540Z,19.17
2023-01-26T11:40:02.508Z,21.15
2023-01-26T11:41:25.372Z,21.98
2023-01-26T11:42:44.588Z,24.60
2023-01-26T11:43:47.341Z,19.10
2023-01-26T11:45:26.212Z,23.40
2023-01-26T11:46:42.867Z,22.00
2023-01-26T11:47:54.744Z,18.92
2023-01-26T11:49:09.183Z,21.77
2023-01-26T11:50:31.608Z,24.67
2023-01-26T11:51:55.968Z,19.92
2023-01-26T11:53:17.588Z,19.52
2023-01-26T11:54:51.823Z,20.60
2023-01-26T11:56:27.274Z,19.45
2023-01-26T11:57:39.243Z,20.45
2023-01-26T11:59:08.414Z,23.75
2023-01-26T12:00:30.226Z,23.10
2023-01-26T12:01:44.303Z,23.50
2023-01-26T12:02:58.149Z,21.55
2023-01-26T12:04:01.145Z,23.05
2023-01-26T12:05:39.732Z,20.42
2023-01-26T12:06:45.995Z,21.40
2023-01-26T12:08:13.353Z,25.00
2023-01-26T12:09:33.170Z,25.65
2023-01-26T12:10:50.878Z,18.42
2023-01-26T12:12:04.266Z,20.12
2023-01-26T12:13:23.356Z,19.85
2023-01-26T12:14:31.963Z,17.87
2023-01-26T12:15:38.939Z,21.62
2023-01-26T12:16:48.379Z,23.00
2023-01-26T12:17:58.995Z,19.30
2023-01-26T12:20:46.030Z,18.55
2023-01-26T12:21:50.663Z,17.52
2023-01-26T12:23:15.132Z,18.23
2023-01-26T12:25:01.029Z,18.98
2023-01-26T12:26:06.172Z,20.35
2023-01-26T12:27:37.975Z,18.55
2023-01-26T12:29:59.308Z,17.48
2023-01-26T12:31:18.085Z,17.33
2023-01-26T12:32:22.857Z,19.30
2023-01-26T12:33:26.316Z,18.25
2023-01-26T12:34:33.772Z,16.60
2023-01-26T12:36:19.124Z,17.80
2023-01-26T12:37:28.358Z,20.92
2023-01-26T12:38:56.153Z,16.00
2023-01-26T12:40:11.596Z,16.98
2023-01-26T12:41:46.849Z,20.70
2023-01-26T12:42:52.717Z,19.98
2023-01-26T12:44:03.747Z,15.77
2023-01-26T12:45:18.141Z,17.87
2023-01-26T12:46:23.860Z,19.40
2023-01-26T12:47:39.301Z,19.27
2023-01-26T12:48:49.033Z,19.23
2023-01-26T12:50:12.618Z,17.98
2023-01-26T12:51:34.367Z,17.73
2023-01-26T12:52:50.112Z,21.05
2023-01-26T12:54:23.451Z,20.45
2023-01-26T12:55:31.561Z,22.67
2023-01-26T12:56:50.164Z,20.42
2023-01-26T12:58:13.139Z,21.65
2023-01-26T12:59:38.596Z,20.15
2023-01-26T13:01:16.963Z,21.85
2023-01-26T13:02:29.537Z,22.67
2023-01-26T13:04:04.474Z,18.60
2023-01-26T13:05:08.135Z,21.75
2023-01-26T13:06:11.056Z,20.77
2023-01-26T13:07:33.660Z,22.20
2023-01-26T13:08:53.904Z,23.73
2023-01-26T13:10:20.592Z,23.15
2023-01-26T13:11:42.652Z,22.48
2023-01-26T13:13:57.591Z,20.77
2023-01-26T13:15:01.321Z,22.17
2023-01-26T13:16:16.335Z,22.20
2023-01-26T13:17:19.366Z,25.90
2023-01-26T13:18:53.362Z,20.73
2023-01-26T13:20:08.761Z,26.08
2023-01-26T13:21:12.252Z,20.45
2023-01-26T13:22:24.013Z,21.92
2023-01-26T13:23:43.174Z,20.12
2023-01-26T13:24:56.701Z,24.58
2023-01-26T13:26:15.368Z,24.42
2023-01-26T13:27:44.258Z,22.23
2023-01-26T13:28:49.022Z,22.95
2023-01-26T13:29:57.138Z,21.40
2023-01-26T13:31:05.395Z,22.05
2023-01-26T13:32:14.464Z,24.55
2023-01-26T13:33:28.141Z,20.65
2023-01-26T13:34:47.991Z,23.70
2023-01-26T13:35:53.824Z,26.60
2023-01-26T13:37:04.337Z,24.95
2023-01-26T13:38:24.790Z,19.42
2023-01-26T13:39:35.679Z,21.42
2023-01-26T13:40:44.402Z,23.83
2023-01-26T13:41:48.366Z,23.50
2023-01-26T13:43:27.231Z,23.40
2023-01-26T13:44:46.598Z,24.08
2023-01-26T13:46:15.918Z,19.87
2023-01-26T13:47:24.930Z,20.17
2023-01-26T13:48:40.875Z,22.52
2023-01-26T13:49:44.121Z,22.60
2023-01-26T13:50:52.272Z,27.48
2023-01-26T13:51:55.469Z,23.15
2023-01-26T13:52:59.049Z,23.50
2023-01-26T13:54:13.553Z,26.77
2023-01-26T13:55:45.063Z,24.25
2023-01-26T13:57:06.143Z,23.77
2023-01-26T13:58:14.310Z,23.55
2023-01-26T13:59:23.255Z,21.05
2023-01-26T14:00:26.263Z,20.50
2023-01-26T14:01:31.889Z,20.98
2023-01-26T14:02:39.380Z,23.35
2023-01-26T14:03:42.252Z,23.42
2023-01-26T14:04:53.430Z,22.25
2023-01-26T14:06:00.910Z,23.52
2023-01-26T14:07:19.255Z,20.23
2023-01-26T14:08:30.043Z,21.98
2023-01-26T14:09:37.621Z,22.60
2023-01-26T14:10:43.596Z,27.17
2023-01-26T14:11:56.478Z,25.45
2023-01-26T14:13:01.381Z,26.00
2023-01-26T14:14:04.581Z,23.08
2023-01-26T14:15:23.576Z,22.52
2023-01-26T14:16:33.509Z,24.37
2023-01-26T14:17:49.007Z,23.80
2023-01-26T14:18:52.818Z,22.02
2023-01-26T14:19:57.305Z,20.60
2023-01-26T14:21:07.308Z,22.42
2023-01-26T14:22:13.123Z,25.98
2023-01-26T14:23:37.090Z,23.50
2023-01-26T14:24:41.571Z,22.17
2023-01-26T14:25:57.166Z,22.83
2023-01-26T14:27:02.379Z,23.77
2023-01-26T14:28:05.506Z,22.42
2023-01-26T14:29:20.446Z,26.80
2023-01-26T14:30:31.440Z,20.83
2023-01-26T14:31:35.633Z,24.23
2023-01-26T14:32:39.450Z,26.42
2023-01-26T14:33:42.520Z,23.02
2023-01-26T14:34:57.946Z,23.12
2023-01-26T14:36:04.174Z,24.35
2023-01-26T14:37:17.947Z,23.95
2023-01-26T14:38:21.331Z,21.02
2023-01-26T14:39:24.273Z,23.87
2023-01-26T14:40:27.227Z,24.15
2023-01-26T14:41:32.712Z,23.77
2023-01-26T14:42:36.133Z,24.83
2023-01-26T14:43:42.467Z,22.95
2023-01-26T14:44:46.143Z,27.35
2023-01-26T14:46:14.286Z,25.23
2023-01-26T14:47:32.289Z,24.50
2023-01-26T14:48:42.854Z,28.90